Time;durP1;ratioP1;P1;durP2;ratioP2;P2;SDS_P1;SDS_P2;PMS_P1;PMS_P2;Temp;Humidity;BMP_temperature;BMP_pressure;BME280_temperature;BME280_humidity;BME280_pressure;Samples;Min_cycle;Max_cycle;Signal;HPM_P1;HPM_P2
2023/05/22 00:00:17;;;;;;;;;;;;;;;;;;5060370;28;19929;-77
2023/05/22 00:02:51;;;;;;;;;;;;;;;;;;5077902;28;19928;-76
2023/05/22 00:05:23;;;;;;;;;;;;;;;;;;5060539;28;19921;-76
2023/05/22 00:07:56;;;;;;;;;;;;;;;;;;5058790;28;19931;-76
2023/05/22 00:10:29;;;;;;;;;;;;;;;;;;5074474;28;20535;-76
2023/05/22 00:12:57;;;;;;;;;;;;;;;;;;5065099;28;20258;-76
2023/05/22 00:15:29;;;;;;;;;;;;;;;;;;5060775;28;19939;-77
2023/05/22 00:17:57;;;;;;;;;;;;;;;;;;5060214;28;20369;-77
2023/05/22 00:20:30;;;;;;;;;;;;;;;;;;5068444;28;19929;-76
2023/05/22 00:23:02;;;;;;;;;;;;;;;;;;5060752;28;19921;-77
2023/05/22 00:25:30;;;;;;;;;;;;;;;;;;5058955;28;19925;-77
2023/05/22 00:27:57;;;;;;;;;;;;;;;;;;5061850;28;19924;-77
2023/05/22 00:30:25;;;;;;;;;;;;;;;;;;5075269;28;19932;-76
2023/05/22 00:32:57;;;;;;;;;;;;;;;;;;5068891;28;19920;-77
2023/05/22 00:35:25;;;;;;;;;;;;;;;;;;5059391;28;19931;-76
2023/05/22 00:37:53;;;;;;;;;;;;;;;;;;5078065;28;19921;-76
2023/05/22 00:40:20;;;;;;;;;;;;;;;;;;5060220;28;19929;-75
2023/05/22 00:42:48;;;;;;;;;;;;;;;;;;5061126;28;19927;-76
2023/05/22 00:45:15;;;;;;;;;;;;;;;;;;5067245;28;19931;-77
2023/05/22 00:47:48;;;;;;;;;;;;;;;;;;5058480;28;19921;-76
2023/05/22 00:50:16;;;;;;;;;;;;;;;;;;5075259;28;19931;-77
2023/05/22 00:52:49;;;;;;;;;;;;;;;;;;5062407;28;19921;-75
2023/05/22 00:55:21;;;;;;;;;;;;;;;;;;5066582;28;20312;-77
2023/05/22 00:57:54;;;;;;;;;;;;;;;;;;5060174;28;19924;-76
2023/05/22 01:00:22;;;;;;;;;;;;;;;;;;5075437;28;20535;-77
2023/05/22 01:02:51;;;;;;;;;;;;;;;;;;5068354;28;19935;-77
2023/05/22 01:05:25;;;;;;;;;;;;;;;;;;5066984;28;20395;-77
2023/05/22 01:07:53;;;;;;;;;;;;;;;;;;5067394;28;19920;-76
2023/05/22 01:10:20;;;;;;;;;;;;;;;;;;5068583;28;19928;-77
2023/05/22 01:12:48;;;;;;;;;;;;;;;;;;5056193;28;20325;-76
2023/05/22 01:15:17;;;;;;;;;;;;;;;;;;5075902;28;19924;-77
2023/05/22 01:17:51;;;;;;;;;;;;;;;;;;5062783;28;20277;-77
2023/05/22 01:20:24;;;;;;;;;;;;;;;;;;5061107;28;19932;-75
2023/05/22 01:22:57;;;;;;;;;;;;;;;;;;5066842;28;19925;-76
2023/05/22 01:25:29;;;;;;;;;;;;;;;;;;5063675;28;19920;-77
2023/05/22 01:28:02;;;;;;;;;;;;;;;;;;5058016;28;19924;-78
2023/05/22 01:30:34;;;;;;;;;;;;;;;;;;5058030;28;20254;-77
2023/05/22 01:33:02;;;;;;;;;;;;;;;;;;5073913;28;20377;-77
2023/05/22 01:35:29;;;;;;;;;;;;;;;;;;5058608;28;19987;-77
2023/05/22 01:38:02;;;;;;;;;;;;;;;;;;5060409;28;19932;-77
2023/05/22 01:40:30;;;;;;;;;;;;;;;;;;5073717;28;19924;-76
2023/05/22 01:43:03;;;;;;;;;;;;;;;;;;5065848;28;20514;-76
2023/05/22 01:45:36;;;;;;;;;;;;;;;;;;5066531;28;19946;-76
2023/05/22 01:48:09;;;;;;;;;;;;;;;;;;5060227;28;19920;-76
2023/05/22 01:50:36;;;;;;;;;;;;;;;;;;5058542;28;19924;-78
2023/05/22 01:53:04;;;;;;;;;;;;;;;;;;5059208;28;19920;-75
2023/05/22 01:55:39;;;;;;;;;;;;;;;;;;5058045;28;19928;-77
2023/05/22 01:58:11;;;;;;;;;;;;;;;;;;5066396;28;19935;-76
2023/05/22 02:00:44;;;;;;;;;;;;;;;;;;5065471;28;19921;-75
2023/05/22 02:03:17;;;;;;;;;;;;;;;;;;5075004;28;19924;-77
2023/05/22 02:05:50;;;;;;;;;;;;;;;;;;5061950;28;19931;-76
2023/05/22 02:08:23;;;;;;;;;;;;;;;;;;5066718;28;20357;-76
2023/05/22 02:10:51;;;;;;;;;;;;;;;;;;5066495;28;20321;-76
2023/05/22 02:13:20;;;;;;;;;;;;;;;;;;5060643;28;19931;-76
2023/05/22 02:15:53;;;;;;;;;;;;;;;;;;5061370;28;19928;-76
2023/05/22 02:18:21;;;;;;;;;;;;;;;;;;5072527;28;19925;-76
2023/05/22 02:20:54;;;;;;;;;;;;;;;;;;5067707;28;19928;-75
2023/05/22 02:23:28;;;;;;;;;;;;;;;;;;5066854;28;19924;-77
2023/05/22 02:25:56;;;;;;;;;;;;;;;;;;5057716;28;19932;-77
2023/05/22 02:28:28;;;;;;;;;;;;;;;;;;5059803;28;19940;-76
2023/05/22 02:31:02;;;;;;;;;;;;;;;;;;5067243;28;19932;-78
2023/05/22 02:33:34;;;;;;;;;;;;;;;;;;5059566;28;19925;-78
2023/05/22 02:36:09;;;;;;;;;;;;;;;;;;5057552;28;19927;-78
2023/05/22 02:38:37;;;;;;;;;;;;;;;;;;5075302;28;19931;-75
2023/05/22 02:41:05;;;;;;;;;;;;;;;;;;5075498;28;19924;-77
2023/05/22 02:43:32;;;;;;;;;;;;;;;;;;5074676;28;20324;-76
2023/05/22 02:46:05;;;;;;;;;;;;;;;;;;5057592;28;19920;-76
2023/05/22 02:48:32;;;;;;;;;;;;;;;;;;5066141;28;19924;-76
2023/05/22 02:51:00;;;;;;;;;;;;;;;;;;5071504;28;19921;-75
2023/05/22 02:53:27;;;;;;;;;;;;;;;;;;5056367;28;19928;-77
2023/05/22 02:56:00;;;;;;;;;;;;;;;;;;5058214;28;19924;-75
2023/05/22 02:58:27;;;;;;;;;;;;;;;;;;5056123;28;19925;-77
2023/05/22 03:00:55;;;;;;;;;;;;;;;;;;5057168;28;19921;-75
2023/05/22 03:03:23;;;;;;;;;;;;;;;;;;5074377;28;20011;-77
2023/05/22 03:05:57;;;;;;;;;;;;;;;;;;5063809;28;20700;-76
2023/05/22 03:08:27;;;;;;;;;;;;;;;;;;5059752;28;19931;-75
2023/05/22 03:10:54;;;;;;;;;;;;;;;;;;5065365;28;19920;-77
2023/05/22 03:13:27;;;;;;;;;;;;;;;;;;5061158;28;19924;-78
2023/05/22 03:15:54;;;;;;;;;;;;;;;;;;5067438;28;20372;-78
2023/05/22 03:18:27;;;;;;;;;;;;;;;;;;5076699;28;19921;-76
2023/05/22 03:21:00;;;;;;;;;;;;;;;;;;5062683;28;19925;-76
2023/05/22 03:23:27;;;;;;;;;;;;;;;;;;5062375;28;19921;-76
2023/05/22 03:25:55;;;;;;;;;;;;;;;;;;5061595;28;19929;-77
2023/05/22 03:28:26;;;;;;;;;;;;;;;;;;5075870;28;19932;-77
2023/05/22 03:30:54;;;;;;;;;;;;;;;;;;5070774;28;19924;-76
2023/05/22 03:33:25;;;;;;;;;;;;;;;;;;5062060;28;19925;-75
2023/05/22 03:35:55;;;;;;;;;;;;;;;;;;5074549;28;19921;-76
2023/05/22 03:38:22;;;;;;;;;;;;;;;;;;5062663;28;20160;-77
2023/05/22 03:40:55;;;;;;;;;;;;;;;;;;5067125;28;19925;-75
2023/05/22 03:43:23;;;;;;;;;;;;;;;;;;5063235;28;20297;-78
2023/05/22 03:45:51;;;;;;;;;;;;;;;;;;5070308;28;19928;-77
2023/05/22 03:48:23;;;;;;;;;;;;;;;;;;5067891;28;19935;-78
2023/05/22 03:50:51;;;;;;;;;;;;;;;;;;5068142;28;19920;-76
2023/05/22 03:53:19;;;;;;;;;;;;;;;;;;5074229;28;20293;-75
2023/05/22 03:55:47;;;;;;;;;;;;;;;;;;5082255;28;19925;-76
2023/05/22 03:58:20;;;;;;;;;;;;;;;;;;5073953;28;19935;-76
2023/05/22 04:00:47;;;;;;;;;;;;;;;;;;5061592;28;19925;-77
2023/05/22 04:03:18;;;;;;;;;;;;;;;;;;5060416;28;19921;-75
2023/05/22 04:05:45;;;;;;;;;;;;;;;;;;5060268;28;20387;-76
2023/05/22 04:08:13;;;;;;;;;;;;;;;;;;5079538;28;19924;-76
2023/05/22 04:10:41;;;;;;;;;;;;;;;;;;5067539;28;19920;-75
2023/05/22 04:13:13;;;;;;;;;;;;;;;;;;5061539;28;20292;-76
2023/05/22 04:15:42;;;;;;;;;;;;;;;;;;5061965;28;19924;-77
2023/05/22 04:18:10;;;;;;;;;;;;;;;;;;5060910;28;19920;-76
2023/05/22 04:20:38;;;;;;;;;;;;;;;;;;5074868;28;19927;-77
2023/05/22 04:23:06;;;;;;;;;;;;;;;;;;5076958;28;19928;-77
2023/05/22 04:25:35;;;;;;;;;;;;;;;;;;5059599;28;19924;-77
2023/05/22 04:28:03;;;;;;;;;;;;;;;;;;5060735;28;19924;-75
2023/05/22 04:30:32;;;;;;;;;;;;;;;;;;5066958;28;19928;-77
2023/05/22 04:33:05;;;;;;;;;;;;;;;;;;5057855;28;19931;-76
2023/05/22 04:35:33;;;;;;;;;;;;;;;;;;5060193;28;19939;-75
2023/05/22 04:38:02;;;;;;;;;;;;;;;;;;5076943;28;20387;-75
2023/05/22 04:40:32;;;;;;;;;;;;;;;;;;5061428;28;19924;-75
2023/05/22 04:43:05;;;;;;;;;;;;;;;;;;5074567;28;19920;-75
2023/05/22 04:45:32;;;;;;;;;;;;;;;;;;5059293;28;19932;-77
2023/05/22 04:48:01;;;;;;;;;;;;;;;;;;5077236;28;19921;-76
2023/05/22 04:50:31;;;;;;;;;;;;;;;;;;5076024;28;19920;-77
2023/05/22 04:53:02;;;;;;;;;;;;;;;;;;5077434;28;19924;-77
2023/05/22 04:55:32;;;;;;;;;;;;;;;;;;5060608;28;19924;-76
2023/05/22 04:58:05;;;;;;;;;;;;;;;;;;5066596;28;19921;-77
2023/05/22 05:00:33;;;;;;;;;;;;;;;;;;5057625;28;19924;-77
2023/05/22 05:03:00;;;;;;;;;;;;;;;;;;5074366;28;20035;-75
2023/05/22 05:05:33;;;;;;;;;;;;;;;;;;5060358;28;20281;-78
2023/05/22 05:08:01;;;;;;;;;;;;;;;;;;5065537;28;19928;-76
2023/05/22 05:10:28;;;;;;;;;;;;;;;;;;5074448;28;19967;-79
2023/05/22 05:12:56;;;;;;;;;;;;;;;;;;5063704;28;20278;-77
2023/05/22 05:15:23;;;;;;;;;;;;;;;;;;5067085;28;19924;-77
2023/05/22 05:17:51;;;;;;;;;;;;;;;;;;5072105;28;20281;-77
2023/05/22 05:20:26;;;;;;;;;;;;;;;;;;5060086;28;19924;-77
2023/05/22 05:22:54;;;;;;;;;;;;;;;;;;5064446;28;19924;-76
2023/05/22 05:25:21;;;;;;;;;;;;;;;;;;5066289;28;19931;-78
2023/05/22 05:27:55;;;;;;;;;;;;;;;;;;5074441;28;20361;-78
2023/05/22 05:30:29;;;;;;;;;;;;;;;;;;5065622;28;20421;-76
2023/05/22 05:33:20;;;;;;;;;;;;;;;;;;5041075;28;19943;-77
2023/05/22 05:36:04;;;;;;;;;;;;;;;;;;5066161;28;20003;-77
2023/05/22 05:38:37;;;;;;;;;;;;;;;;;;5058170;28;19924;-77
2023/05/22 05:41:05;;;;;;;;;;;;;;;;;;5059661;28;19921;-77
2023/05/22 05:43:37;;;;;;;;;;;;;;;;;;5065432;28;20391;-78
2023/05/22 05:46:07;;;;;;;;;;;;;;;;;;5057297;28;19928;-76
2023/05/22 05:48:35;;;;;;;;;;;;;;;;;;5067016;28;19920;-78
2023/05/22 05:51:08;;;;;;;;;;;;;;;;;;5057035;28;19928;-77
2023/05/22 05:53:40;;;;;;;;;;;;;;;;;;5065929;28;19924;-77
2023/05/22 05:56:13;;;;;;;;;;;;;;;;;;5074627;28;19924;-77
2023/05/22 05:58:41;;;;;;;;;;;;;;;;;;5074644;28;19921;-77
2023/05/22 06:01:30;;;;;;;;;;;;;;;;;;5064799;28;19924;-75
2023/05/22 06:04:01;;;;;;;;;;;;;;;;;;5065612;28;20581;-77
2023/05/22 06:06:34;;;;;;;;;;;;;;;;;;5063974;28;19928;-76
2023/05/22 06:09:14;;;;;;;;;;;;;;;;;;5059252;28;19939;-77
2023/05/22 06:12:12;;;;;;;;;;;;;;;;;;5050977;28;19929;-77
2023/05/22 06:14:43;;;;;;;;;;;;;;;;;;5065624;28;19924;-77
2023/05/22 06:17:15;;;;;;;;;;;;;;;;;;5064210;28;19929;-77
2023/05/22 06:19:44;;;;;;;;;;;;;;;;;;5073699;28;19925;-79
2023/05/22 06:22:17;;;;;;;;;;;;;;;;;;5067817;28;20388;-77
2023/05/22 06:24:50;;;;;;;;;;;;;;;;;;5066120;28;19932;-78
2023/05/22 06:27:26;;;;;;;;;;;;;;;;;;5067663;28;19931;-78
2023/05/22 06:30:00;;;;;;;;;;;;;;;;;;5056185;28;19931;-79
2023/05/22 06:32:32;;;;;;;;;;;;;;;;;;5071372;28;20301;-78
2023/05/22 06:35:00;;;;;;;;;;;;;;;;;;5063336;28;19932;-78
2023/05/22 06:37:30;;;;;;;;;;;;;;;;;;5043869;28;19929;-80
2023/05/22 06:39:57;;;;;;;;;;;;;;;;;;5048957;28;19928;-77
2023/05/22 06:42:38;;;;;;;;;;;;;;;;;;5043912;28;19935;-78
2023/05/22 06:45:25;;;;;;;;;;;;;;;;;;5046003;28;19935;-80
2023/05/22 06:48:28;;;;;;;;;;;;;;;;;;5026021;28;19929;-80
2023/05/22 06:51:11;;;;;;;;;;;;;;;;;;5049747;28;19936;-79
2023/05/22 06:53:40;;;;;;;;;;;;;;;;;;5038819;28;19936;-81
2023/05/22 06:56:16;;;;;;;;;;;;;;;;;;5060323;28;19928;-79
2023/05/22 06:58:59;;;;;;;;;;;;;;;;;;5038874;28;19929;-79
2023/05/22 07:01:42;;;;;;;;;;;;;;;;;;5039655;28;20383;-80
2023/05/22 07:04:14;;;;;;;;;;;;;;;;;;5041145;28;19928;-78
2023/05/22 07:06:54;;;;;;;;;;;;;;;;;;5058686;28;20289;-79
2023/05/22 07:09:22;;;;;;;;;;;;;;;;;;5045636;28;20384;-76
2023/05/22 07:11:50;;;;;;;;;;;;;;;;;;5056742;28;19935;-79
2023/05/22 07:14:18;;;;;;;;;;;;;;;;;;5037696;28;20582;-76
2023/05/22 07:16:50;;;;;;;;;;;;;;;;;;5038733;28;19928;-79
2023/05/22 07:19:27;;;;;;;;;;;;;;;;;;5040494;28;19982;-79
2023/05/22 07:21:58;;;;;;;;;;;;;;;;;;5037746;28;19928;-78
2023/05/22 07:24:26;;;;;;;;;;;;;;;;;;5042501;28;20462;-78
2023/05/22 07:27:00;;;;;;;;;;;;;;;;;;5042605;28;20010;-78
2023/05/22 07:29:27;;;;;;;;;;;;;;;;;;5041588;28;20788;-78
2023/05/22 07:31:55;;;;;;;;;;;;;;;;;;5048744;28;19928;-78
2023/05/22 07:34:30;;;;;;;;;;;;;;;;;;5042530;28;19935;-80
2023/05/22 07:36:58;;;;;;;;;;;;;;;;;;5041466;28;19928;-79
2023/05/22 07:39:25;;;;;;;;;;;;;;;;;;5048681;28;19932;-78
2023/05/22 07:41:58;;;;;;;;;;;;;;;;;;5037074;28;19929;-77
2023/05/22 07:44:26;;;;;;;;;;;;;;;;;;5038875;28;19928;-76
2023/05/22 07:46:55;;;;;;;;;;;;;;;;;;5041891;28;19939;-79
2023/05/22 07:49:23;;;;;;;;;;;;;;;;;;5046908;28;21038;-79
2023/05/22 07:51:51;;;;;;;;;;;;;;;;;;5035518;28;19929;-79
2023/05/22 07:54:20;;;;;;;;;;;;;;;;;;5036719;28;19936;-76
2023/05/22 07:56:50;;;;;;;;;;;;;;;;;;5046410;28;19943;-79
2023/05/22 07:59:20;;;;;;;;;;;;;;;;;;5041409;28;19935;-77
2023/05/22 08:01:56;;;;;;;;;;;;;;;;;;5043177;28;19935;-78
2023/05/22 08:04:24;;;;;;;;;;;;;;;;;;5040974;28;19940;-79
2023/05/22 08:06:56;;;;;;;;;;;;;;;;;;5045244;28;19928;-79
2023/05/22 08:09:29;;;;;;;;;;;;;;;;;;5045025;28;20447;-77
2023/05/22 08:11:56;;;;;;;;;;;;;;;;;;5050574;28;19928;-78
2023/05/22 08:14:24;;;;;;;;;;;;;;;;;;5045985;28;19928;-80
2023/05/22 08:16:57;;;;;;;;;;;;;;;;;;5040862;28;19928;-80
2023/05/22 08:19:25;;;;;;;;;;;;;;;;;;5040327;28;19928;-77
2023/05/22 08:21:58;;;;;;;;;;;;;;;;;;5039760;28;19943;-79
2023/05/22 08:24:27;;;;;;;;;;;;;;;;;;5061071;28;19935;-79
2023/05/22 08:26:54;;;;;;;;;;;;;;;;;;5041092;28;20536;-79
2023/05/22 08:29:27;;;;;;;;;;;;;;;;;;5050507;28;19928;-78
2023/05/22 08:31:55;;;;;;;;;;;;;;;;;;5042130;28;19935;-79
2023/05/22 08:34:28;;;;;;;;;;;;;;;;;;5044086;28;19928;-79
2023/05/22 08:36:56;;;;;;;;;;;;;;;;;;5045265;28;20378;-81
2023/05/22 08:39:23;;;;;;;;;;;;;;;;;;5045732;28;19936;-82
2023/05/22 08:41:51;;;;;;;;;;;;;;;;;;5039974;28;19928;-80
2023/05/22 08:44:19;;;;;;;;;;;;;;;;;;5040337;28;19928;-79
2023/05/22 08:46:48;;;;;;;;;;;;;;;;;;5039691;28;19921;-78
2023/05/22 08:49:20;;;;;;;;;;;;;;;;;;5042308;28;20512;-77
2023/05/22 08:51:48;;;;;;;;;;;;;;;;;;5042022;28;19928;-79
2023/05/22 08:54:20;;;;;;;;;;;;;;;;;;5043192;28;19928;-79
2023/05/22 08:56:49;;;;;;;;;;;;;;;;;;5058185;28;19928;-79
2023/05/22 08:59:16;;;;;;;;;;;;;;;;;;5041420;28;20680;-79
2023/05/22 09:01:44;;;;;;;;;;;;;;;;;;5036625;28;19936;-80
2023/05/22 09:04:11;;;;;;;;;;;;;;;;;;5034468;28;20271;-78
2023/05/22 09:06:39;;;;;;;;;;;;;;;;;;5043148;28;19929;-78
2023/05/22 09:09:09;;;;;;;;;;;;;;;;;;5038945;28;20561;-80
2023/05/22 09:11:41;;;;;;;;;;;;;;;;;;5030881;28;19925;-77
2023/05/22 09:14:14;;;;;;;;;;;;;;;;;;5033942;28;20198;-80
2023/05/22 09:16:42;;;;;;;;;;;;;;;;;;5038757;28;20219;-78
2023/05/22 09:19:09;;;;;;;;;;;;;;;;;;5042234;28;19936;-78
2023/05/22 09:21:43;;;;;;;;;;;;;;;;;;5035970;28;19943;-77
2023/05/22 09:24:15;;;;;;;;;;;;;;;;;;5035087;28;19934;-80
2023/05/22 09:26:43;;;;;;;;;;;;;;;;;;5045942;28;20526;-78
2023/05/22 09:29:15;;;;;;;;;;;;;;;;;;5055856;28;21365;-78
2023/05/22 09:31:43;;;;;;;;;;;;;;;;;;5033494;28;19927;-77
2023/05/22 09:34:12;;;;;;;;;;;;;;;;;;5037218;28;19928;-80
2023/05/22 09:36:45;;;;;;;;;;;;;;;;;;5041827;28;19936;-77
2023/05/22 09:39:13;;;;;;;;;;;;;;;;;;5037620;28;20292;-78
2023/05/22 09:41:45;;;;;;;;;;;;;;;;;;5029218;28;19931;-79
2023/05/22 09:44:18;;;;;;;;;;;;;;;;;;5037480;28;20555;-80
2023/05/22 09:46:50;;;;;;;;;;;;;;;;;;5043599;28;20524;-78
2023/05/22 09:49:23;;;;;;;;;;;;;;;;;;5043429;28;19929;-78
2023/05/22 09:51:51;;;;;;;;;;;;;;;;;;5031674;28;20607;-78
2023/05/22 09:54:18;;;;;;;;;;;;;;;;;;5042426;28;19924;-76
2023/05/22 09:56:51;;;;;;;;;;;;;;;;;;5043991;28;20369;-78
2023/05/22 09:59:18;;;;;;;;;;;;;;;;;;5045731;28;19928;-78
2023/05/22 10:01:46;;;;;;;;;;;;;;;;;;5046192;28;19939;-81
2023/05/22 10:04:18;;;;;;;;;;;;;;;;;;5035393;28;19936;-81
2023/05/22 10:06:51;;;;;;;;;;;;;;;;;;5035560;28;19928;-79
2023/05/22 10:09:19;;;;;;;;;;;;;;;;;;5038812;28;19928;-77
2023/05/22 10:11:46;;;;;;;;;;;;;;;;;;5044001;28;21334;-81
2023/05/22 10:14:19;;;;;;;;;;;;;;;;;;5044205;28;19929;-77
2023/05/22 10:16:47;;;;;;;;;;;;;;;;;;5043276;28;19928;-78
2023/05/22 10:19:19;;;;;;;;;;;;;;;;;;5037032;28;20858;-81
2023/05/22 10:21:52;;;;;;;;;;;;;;;;;;5030837;28;20332;-80
2023/05/22 10:24:20;;;;;;;;;;;;;;;;;;5049272;28;19928;-81
2023/05/22 10:26:47;;;;;;;;;;;;;;;;;;5045651;28;21629;-78
2023/05/22 10:29:21;;;;;;;;;;;;;;;;;;5051378;28;20292;-82
2023/05/22 10:31:49;;;;;;;;;;;;;;;;;;5043491;28;19932;-79
2023/05/22 10:34:29;;;;;;;;;;;;;;;;;;5045556;28;19928;-81
2023/05/22 10:36:56;;;;;;;;;;;;;;;;;;5044273;28;19928;-80
2023/05/22 10:39:29;;;;;;;;;;;;;;;;;;5037567;28;19967;-80
2023/05/22 10:42:02;;;;;;;;;;;;;;;;;;5037583;28;19932;-80
2023/05/22 10:44:35;;;;;;;;;;;;;;;;;;5046558;28;20340;-79
2023/05/22 10:47:02;;;;;;;;;;;;;;;;;;5048399;28;19946;-79
2023/05/22 10:49:30;;;;;;;;;;;;;;;;;;5050860;28;19935;-80
2023/05/22 10:52:02;;;;;;;;;;;;;;;;;;5045636;28;20392;-78
2023/05/22 10:54:35;;;;;;;;;;;;;;;;;;5051096;28;20241;-79
2023/05/22 10:57:02;;;;;;;;;;;;;;;;;;5049007;28;21267;-76
2023/05/22 10:59:30;;;;;;;;;;;;;;;;;;5046117;28;20396;-77
2023/05/22 11:01:57;;;;;;;;;;;;;;;;;;5044716;28;19928;-80
2023/05/22 11:04:30;;;;;;;;;;;;;;;;;;5049024;28;19943;-82
2023/05/22 11:06:58;;;;;;;;;;;;;;;;;;5044674;28;19928;-79
2023/05/22 11:09:30;;;;;;;;;;;;;;;;;;5045343;28;19928;-77
2023/05/22 11:11:58;;;;;;;;;;;;;;;;;;5046518;28;19928;-81
2023/05/22 11:14:30;;;;;;;;;;;;;;;;;;5044076;28;19928;-79
2023/05/22 11:17:03;;;;;;;;;;;;;;;;;;5038975;28;19928;-78
2023/05/22 11:19:30;;;;;;;;;;;;;;;;;;5041391;28;20632;-80
2023/05/22 11:22:03;;;;;;;;;;;;;;;;;;5048240;28;19928;-79
2023/05/22 11:24:35;;;;;;;;;;;;;;;;;;5036997;28;20380;-78
2023/05/22 11:27:08;;;;;;;;;;;;;;;;;;5045390;28;19935;-77
2023/05/22 11:29:37;;;;;;;;;;;;;;;;;;5046578;28;19925;-76
2023/05/22 11:32:04;;;;;;;;;;;;;;;;;;5044821;28;19928;-80
2023/05/22 11:34:37;;;;;;;;;;;;;;;;;;5044295;28;19936;-80
2023/05/22 11:37:09;;;;;;;;;;;;;;;;;;5047730;28;19928;-80
2023/05/22 11:39:37;;;;;;;;;;;;;;;;;;5052559;28;19928;-80
2023/05/22 11:42:10;;;;;;;;;;;;;;;;;;5049580;28;19924;-79
2023/05/22 11:44:37;;;;;;;;;;;;;;;;;;5043643;28;19934;-79
2023/05/22 11:47:05;;;;;;;;;;;;;;;;;;5041218;28;20529;-80
2023/05/22 11:49:37;;;;;;;;;;;;;;;;;;5044766;28;19935;-81
2023/05/22 11:52:11;;;;;;;;;;;;;;;;;;5039001;28;20581;-80
2023/05/22 11:54:43;;;;;;;;;;;;;;;;;;5041359;28;19929;-81
2023/05/22 11:57:11;;;;;;;;;;;;;;;;;;5049015;28;19935;-77
2023/05/22 11:59:38;;;;;;;;;;;;;;;;;;5046630;28;19935;-80
2023/05/22 12:02:06;;;;;;;;;;;;;;;;;;5039095;28;19936;-79
2023/05/22 12:04:33;;;;;;;;;;;;;;;;;;5060824;28;20576;-80
2023/05/22 12:07:06;;;;;;;;;;;;;;;;;;5040632;28;19928;-80
2023/05/22 12:09:33;;;;;;;;;;;;;;;;;;5040864;28;19935;-79
2023/05/22 12:12:01;;;;;;;;;;;;;;;;;;5038825;28;20427;-80
2023/05/22 12:14:30;;;;;;;;;;;;;;;;;;5042409;28;19929;-81
2023/05/22 12:17:03;;;;;;;;;;;;;;;;;;5037691;28;19929;-78
2023/05/22 12:19:35;;;;;;;;;;;;;;;;;;5037922;28;19928;-76
2023/05/22 12:22:08;;;;;;;;;;;;;;;;;;5055192;28;19935;-80
2023/05/22 12:24:36;;;;;;;;;;;;;;;;;;5041599;28;19936;-80
2023/05/22 12:27:09;;;;;;;;;;;;;;;;;;5027979;28;19936;-80
2023/05/22 12:29:36;;;;;;;;;;;;;;;;;;5039569;28;19929;-79
2023/05/22 12:32:04;;;;;;;;;;;;;;;;;;5042025;28;19928;-79
2023/05/22 12:34:31;;;;;;;;;;;;;;;;;;5040578;28;19939;-81
2023/05/22 12:36:59;;;;;;;;;;;;;;;;;;5043385;28;19935;-78
2023/05/22 12:39:26;;;;;;;;;;;;;;;;;;5054445;28;19931;-78
2023/05/22 12:41:54;;;;;;;;;;;;;;;;;;5044543;28;19924;-78
2023/05/22 12:44:22;;;;;;;;;;;;;;;;;;5046158;28;19928;-79
2023/05/22 12:46:54;;;;;;;;;;;;;;;;;;5050718;28;19921;-79
2023/05/22 12:49:27;;;;;;;;;;;;;;;;;;5048479;28;19939;-80
2023/05/22 12:51:54;;;;;;;;;;;;;;;;;;5045101;28;19928;-79
2023/05/22 12:54:22;;;;;;;;;;;;;;;;;;5039218;28;20392;-78
2023/05/22 12:56:49;;;;;;;;;;;;;;;;;;5046168;28;19935;-80
2023/05/22 12:59:17;;;;;;;;;;;;;;;;;;5042276;28;19936;-79
2023/05/22 13:01:44;;;;;;;;;;;;;;;;;;5034398;28;19928;-80
2023/05/22 13:04:13;;;;;;;;;;;;;;;;;;5060796;28;20200;-80
2023/05/22 13:06:43;;;;;;;;;;;;;;;;;;5055413;28;19928;-80
2023/05/22 13:09:17;;;;;;;;;;;;;;;;;;5044789;28;20499;-78
2023/05/22 13:11:45;;;;;;;;;;;;;;;;;;5043436;28;19928;-76
2023/05/22 13:14:17;;;;;;;;;;;;;;;;;;5040122;28;19928;-78
2023/05/22 13:16:45;;;;;;;;;;;;;;;;;;5049785;28;19928;-81
2023/05/22 13:19:12;;;;;;;;;;;;;;;;;;5043748;28;21828;-81
2023/05/22 13:21:40;;;;;;;;;;;;;;;;;;5048476;28;20666;-79
2023/05/22 13:24:08;;;;;;;;;;;;;;;;;;5041281;28;20321;-81
2023/05/22 13:26:40;;;;;;;;;;;;;;;;;;5041931;28;20327;-79
2023/05/22 13:29:08;;;;;;;;;;;;;;;;;;5024457;28;20138;-83
2023/05/22 13:31:36;;;;;;;;;;;;;;;;;;5035429;28;19928;-81
2023/05/22 13:34:04;;;;;;;;;;;;;;;;;;5037471;28;19936;-82
2023/05/22 13:36:36;;;;;;;;;;;;;;;;;;5038860;28;20008;-79
2023/05/22 13:39:04;;;;;;;;;;;;;;;;;;5034586;28;19928;-81
2023/05/22 13:41:36;;;;;;;;;;;;;;;;;;5036059;28;20754;-80
2023/05/22 13:44:06;;;;;;;5.00;2.90;;;;;;;;;;5039673;28;19929;-81
2023/05/22 13:46:39;;;;;;;9.30;3.10;;;;;;;;;;5036576;28;20052;-79
2023/05/22 13:49:11;;;;;;;6.50;3.88;;;;;;;;;;5039939;28;20219;-81
2023/05/22 13:51:39;;;;;;;7.18;3.00;;;;;;;;;;5035998;28;20064;-79
2023/05/22 13:54:12;;;;;;;4.78;2.67;;;;;;;;;;5034850;28;20048;-80
2023/05/22 13:56:47;;;;;;;7.03;3.03;;;;;;;;;;5036636;28;20053;-82
2023/05/22 13:59:16;;;;;;;10.00;3.20;;;;;;;;;;5036145;28;20052;-78
2023/05/22 14:01:49;;;;;;;6.85;2.88;;;;;;;;;;5038429;28;20064;-79
2023/05/22 14:04:17;;;;;;;6.18;3.20;;;;;;;;;;5041209;28;20052;-77
2023/05/22 14:06:45;;;;;;;7.03;3.20;;;;;;;;;;5040556;28;20040;-78
2023/05/22 14:09:12;;;;;;;5.88;2.67;;;;;;;;;;5040380;28;20056;-80
2023/05/22 14:11:45;;;;;;;4.43;2.60;;;;;;;;;;5046666;28;20064;-82
2023/05/22 14:14:13;;;;;;;6.13;2.72;;;;;;;;;;5039115;28;20059;-81
2023/05/22 14:16:47;;;;;;;8.82;3.17;;;;;;;;;;5053393;28;20056;-78
2023/05/22 14:19:20;;;;;;;7.00;3.15;;;;;;;;;;5048979;28;20063;-79
2023/05/22 14:21:53;;;;;;;5.43;3.15;;;;;;;;;;5048359;28;20057;-81
2023/05/22 14:24:21;;;;;;;6.57;3.10;;;;;;;;;;5043336;28;20067;-79
2023/05/22 14:26:50;;;;;;;9.13;2.97;;;;;;;;;;5040908;28;20071;-80
2023/05/22 14:29:17;;;;;;;6.80;3.28;;;;;;;;;;5036805;28;20060;-80
2023/05/22 14:31:47;;;;;;;6.82;2.80;;;;;;;;;;5043387;28;20075;-82
2023/05/22 14:34:16;;;;;;;4.50;2.67;;;;;;;;;;5044686;28;20056;-79
2023/05/22 14:36:49;;;;;;;7.80;3.22;;;;;;;;;;5044619;28;20417;-81
2023/05/22 14:39:17;;;;;;;5.13;3.13;;;;;;;;;;5011018;28;20052;-79
2023/05/22 14:41:45;;;;;;;5.68;2.55;;;;;;;;;;5036643;28;20056;-81
2023/05/22 14:44:18;;;;;;;5.07;2.80;;;;;;;;;;5034601;28;20761;-81
2023/05/22 14:46:45;;;;;;;8.00;5.35;;;;;;;;;;5044353;28;20539;-80
2023/05/22 14:49:20;;;;;;;8.57;4.10;;;;;;;;;;5039702;28;20051;-78
2023/05/22 14:51:48;;;;;;;15.80;3.75;;;;;;;;;;5036503;28;20068;-80
2023/05/22 14:54:17;;;;;;;6.63;3.13;;;;;;;;;;5032570;28;20061;-81
2023/05/22 14:56:45;;;;;;;6.78;2.95;;;;;;;;;;5034905;28;20093;-83
2023/05/22 14:59:18;;;;;;;4.68;2.80;;;;;;;;;;5043175;28;20052;-79
2023/05/22 15:01:51;;;;;;;5.57;3.05;;;;;;;;;;5044323;28;20246;-81
2023/05/22 15:04:21;;;;;;;5.03;2.80;;;;;;;;;;5037089;28;20294;-82
2023/05/22 15:06:54;;;;;;;5.00;2.90;;;;;;;;;;5037442;28;20059;-79
2023/05/22 15:09:22;;;;;;;8.00;3.15;;;;;;;;;;5042314;28;20055;-81
2023/05/22 15:11:54;;;;;;;6.60;3.08;;;;;;;;;;5042803;28;20056;-80
2023/05/22 15:14:27;;;;;;;12.98;8.07;;;;;;;;;;5044901;28;20709;-80
2023/05/22 15:17:00;;;;;;;7.88;3.00;;;;;;;;;;5039218;28;20520;-78
2023/05/22 15:19:29;;;;;;;6.97;3.20;;;;;;;;;;5039126;28;20056;-81
2023/05/22 15:22:02;;;;;;;6.38;2.80;;;;;;;;;;5045693;28;20043;-78
2023/05/22 15:24:35;;;;;;;4.60;2.53;;;;;;;;;;5043241;28;20753;-82
2023/05/22 15:27:03;;;;;;;10.93;3.45;;;;;;;;;;5040274;28;20075;-80
2023/05/22 15:29:36;;;;;;;4.85;2.80;;;;;;;;;;5043863;28;20064;-80
2023/05/22 15:32:09;;;;;;;6.95;3.13;;;;;;;;;;5043248;28;20052;-82
2023/05/22 15:34:43;;;;;;;9.30;5.28;;;;;;;;;;5036045;28;20875;-80
2023/05/22 15:37:11;;;;;;;7.50;4.28;;;;;;;;;;5041267;28;20048;-79
2023/05/22 15:39:39;;;;;;;6.63;3.17;;;;;;;;;;5014672;28;20816;-82
2023/05/22 15:42:07;;;;;;;5.82;3.10;;;;;;;;;;5040194;28;21802;-81
2023/05/22 15:44:40;;;;;;;6.72;2.85;;;;;;;;;;5038523;28;20694;-82
2023/05/22 15:47:08;;;;;;;6.35;2.80;;;;;;;;;;5042812;28;20048;-83
2023/05/22 15:49:40;;;;;;;6.05;3.10;;;;;;;;;;5041773;28;20052;-80
2023/05/22 15:52:10;;;;;;;6.97;3.03;;;;;;;;;;5050074;28;20067;-80
2023/05/22 15:54:38;;;;;;;4.82;2.83;;;;;;;;;;5041890;28;20725;-80
2023/05/22 15:57:05;;;;;;;5.15;2.80;;;;;;;;;;5042027;28;20709;-81
2023/05/22 15:59:33;;;;;;;5.05;2.97;;;;;;;;;;5036574;28;20049;-80
2023/05/22 16:02:01;;;;;;;5.70;2.83;;;;;;;;;;5042605;28;20633;-82
2023/05/22 16:04:29;;;;;;;5.82;2.65;;;;;;;;;;5038145;28;20048;-82
2023/05/22 16:07:02;;;;;;;7.57;3.45;;;;;;;;;;5043240;28;20052;-81
2023/05/22 16:09:31;;;;;;;8.05;3.20;;;;;;;;;;5040245;28;20052;-80
2023/05/22 16:11:59;;;;;;;5.78;3.00;;;;;;;;;;5038871;28;20045;-81
2023/05/22 16:14:27;;;;;;;6.25;3.10;;;;;;;;;;5044768;28;20428;-80
2023/05/22 16:16:59;;;;;;;5.63;3.00;;;;;;;;;;5042414;28;20064;-78
2023/05/22 16:19:34;;;;;;;5.45;2.80;;;;;;;;;;5049619;28;20437;-84
2023/05/22 16:22:02;;;;;;;7.13;3.40;;;;;;;;;;5043651;28;20056;-83
2023/05/22 16:24:36;;;;;;;8.40;3.25;;;;;;;;;;5078407;28;20051;-80
2023/05/22 16:27:09;;;;;;;5.25;2.67;;;;;;;;;;5074617;28;20048;-81
2023/05/22 16:29:42;;;;;;;6.72;3.40;;;;;;;;;;5089258;27;20066;-81
2023/05/22 16:32:10;;;;;;;5.93;2.83;;;;;;;;;;5080776;28;20055;-81
2023/05/22 16:34:42;;;;;;;8.13;3.40;;;;;;;;;;5083336;28;20059;-80
2023/05/22 16:37:10;;;;;;;7.43;3.42;;;;;;;;;;5085720;28;20031;-81
2023/05/22 16:39:40;;;;;;;8.63;3.45;;;;;;;;;;5039859;28;20052;-79
2023/05/22 16:42:15;;;;;;;9.57;3.30;;;;;;;;;;5066359;28;20056;-82